Time,TemperatureF,DewpointF,PressureIn,WindDirection,WindDirectionDegrees,WindSpeedMPH,WindSpeedGustMPH,Humidity,HourlyPrecipIn,Conditions,Clouds,dailyrainin,SoftwareType,DateUTC
2013-10-23 00:02:00,35.0,35.0,-100.00,SSW,205,1.0,2.0,99,-99.99,,,-99.99,,2013-10-23 05:02:00,
2013-10-23 00:43:00,35.0,35.0,-100.00,SSW,205,1.0,2.0,99,-99.99,,,-99.99,,2013-10-23 05:43:00,
2013-10-23 00:53:00,35.0,35.0,-100.00,SSW,205,1.0,2.0,99,-99.99,,,-99.99,,2013-10-23 05:53:00,
2013-10-23 01:42:00,35.0,35.0,-100.00,SW,230,3.0,4.0,99,-99.99,,,-99.99,,2013-10-23 06:42:00,
2013-10-23 01:52:00,35.0,35.0,-100.00,SW,230,3.0,4.0,99,-99.99,,,-99.99,,2013-10-23 06:52:00,
2013-10-23 02:01:00,35.0,35.0,-100.00,SW,230,3.0,4.0,99,-99.99,,,-99.99,,2013-10-23 07:01:00,
2013-10-23 02:02:00,35.0,35.0,-100.00,SSW,205,2.0,3.0,99,-99.99,,,-99.99,,2013-10-23 07:02:00,
2013-10-23 02:42:00,35.0,35.0,-100.00,SSW,205,2.0,3.0,99,-99.99,,,-99.99,,2013-10-23 07:42:00,
2013-10-23 02:52:00,35.0,35.0,-100.00,SSW,205,2.0,3.0,99,-99.99,,,-99.99,,2013-10-23 07:52:00,
2013-10-23 03:02:00,34.0,34.0,-100.00,SE,145,2.0,3.0,99,-99.99,,,-99.99,,2013-10-23 08:02:00,
2013-10-23 03:42:00,34.0,34.0,-100.00,SE,145,2.0,3.0,99,-99.99,,,-99.99,,2013-10-23 08:42:00,
2013-10-23 03:53:00,34.0,34.0,-100.00,SE,145,2.0,3.0,99,-99.99,,,-99.99,,2013-10-23 08:53:00,
2013-10-23 04:02:00,34.0,33.0,-100.00,ENE,75,6.0,7.0,99,-99.99,,,-99.99,,2013-10-23 09:02:00,
2013-10-23 04:43:00,34.0,33.0,-100.00,ENE,75,6.0,7.0,99,-99.99,,,-99.99,,2013-10-23 09:43:00,
2013-10-23 04:53:00,34.0,33.0,-100.00,ENE,75,6.0,7.0,99,-99.99,,,-99.99,,2013-10-23 09:53:00,
2013-10-23 05:02:00,34.0,33.0,-100.00,East,85,4.0,4.0,99,-99.99,,,-99.99,,2013-10-23 10:02:00,
2013-10-23 05:43:00,34.0,33.0,-100.00,East,85,4.0,4.0,99,-99.99,,,-99.99,,2013-10-23 10:43:00,
2013-10-23 05:53:00,34.0,33.0,-100.00,East,85,4.0,4.0,99,-99.99,,,-99.99,,2013-10-23 10:53:00,
2013-10-23 06:42:00,33.0,33.0,-100.00,NE,40,1.0,1.0,99,-99.99,,,-99.99,,2013-10-23 11:42:00,
2013-10-23 06:52:00,33.0,33.0,-100.00,NE,40,1.0,1.0,99,-99.99,,,-99.99,,2013-10-23 11:52:00,
2013-10-23 07:01:00,33.0,33.0,-100.00,NE,40,1.0,1.0,99,-99.99,,,-99.99,,2013-10-23 12:01:00,
2013-10-23 07:42:00,33.0,33.0,-100.00,North,10,2.0,2.0,99,-99.99,,,-99.99,,2013-10-23 12:42:00,
2013-10-23 07:52:00,33.0,33.0,-100.00,North,10,2.0,2.0,99,-99.99,,,-99.99,,2013-10-23 12:52:00,
2013-10-23 08:01:00,33.0,33.0,-100.00,North,10,2.0,2.0,99,-99.99,,,-99.99,,2013-10-23 13:01:00,
2013-10-23 08:02:00,34.0,33.0,-100.00,NE,45,3.0,3.0,99,-99.99,,,-99.99,,2013-10-23 13:02:00,
2013-10-23 08:43:00,34.0,33.0,-100.00,NE,45,3.0,3.0,99,-99.99,,,-99.99,,2013-10-23 13:43:00,
2013-10-23 08:52:00,34.0,33.0,-100.00,NE,45,3.0,3.0,99,-99.99,,,-99.99,,2013-10-23 13:52:00,
2013-10-23 09:42:00,33.0,33.0,-100.00,ENE,65,5.0,6.0,99,-99.99,,,-99.99,,2013-10-23 14:42:00,
2013-10-23 09:52:00,33.0,33.0,-100.00,ENE,65,5.0,6.0,99,-99.99,,,-99.99,,2013-10-23 14:52:00,
2013-10-23 10:01:00,33.0,33.0,-100.00,ENE,65,5.0,6.0,99,-99.99,,,-99.99,,2013-10-23 15:01:00,
2013-10-23 10:02:00,33.0,33.0,-100.00,ENE,60,2.0,4.0,99,-99.99,,,-99.99,,2013-10-23 15:02:00,
2013-10-23 10:43:00,33.0,33.0,-100.00,ENE,60,2.0,4.0,99,-99.99,,,-99.99,,2013-10-23 15:43:00,
2013-10-23 10:53:00,33.0,33.0,-100.00,ENE,60,2.0,4.0,99,-99.99,,,-99.99,,2013-10-23 15:53:00,
2013-10-23 11:02:00,34.0,34.0,-100.00,NNE,15,4.0,6.0,99,-99.99,,,-99.99,,2013-10-23 16:02:00,
2013-10-23 11:43:00,34.0,34.0,-100.00,NNE,15,4.0,6.0,99,-99.99,,,-99.99,,2013-10-23 16:43:00,
2013-10-23 11:53:00,34.0,34.0,-100.00,NNE,15,4.0,6.0,99,-99.99,,,-99.99,,2013-10-23 16:53:00,
2013-10-23 12:02:00,35.0,35.0,-100.00,NW,310,2.0,3.0,99,-99.99,,,-99.99,,2013-10-23 17:02:00,
2013-10-23 12:44:00,35.0,35.0,-100.00,NW,310,2.0,3.0,99,-99.99,,,-99.99,,2013-10-23 17:44:00,
2013-10-23 12:52:00,35.0,35.0,-100.00,NW,310,2.0,3.0,99,-99.99,,,-99.99,,2013-10-23 17:52:00,
2013-10-23 13:02:00,36.0,34.0,-100.00,North,0,6.0,11.0,95,-99.99,,,-99.99,,2013-10-23 18:02:00,
2013-10-23 13:42:00,36.0,34.0,-100.00,North,0,6.0,11.0,95,-99.99,,,-99.99,,2013-10-23 18:42:00,
2013-10-23 13:52:00,36.0,34.0,-100.00,North,0,6.0,11.0,95,-99.99,,,-99.99,,2013-10-23 18:52:00,
2013-10-23 15:02:00,40.0,30.0,-100.00,NW,320,6.0,10.0,67,-99.99,,,-99.99,,2013-10-23 20:02:00,
2013-10-23 15:42:00,40.0,30.0,-100.00,NW,320,6.0,10.0,67,-99.99,,,-99.99,,2013-10-23 20:42:00,
2013-10-23 15:52:00,40.0,30.0,-100.00,NW,320,6.0,10.0,67,-99.99,,,-99.99,,2013-10-23 20:52:00,
2013-10-23 16:02:00,39.0,29.0,-100.00,NW,305,7.0,9.0,68,-99.99,,,-99.99,,2013-10-23 21:02:00,
2013-10-23 16:43:00,39.0,29.0,-100.00,NW,305,7.0,9.0,68,-99.99,,,-99.99,,2013-10-23 21:43:00,
2013-10-23 16:54:00,39.0,29.0,-100.00,NW,305,7.0,9.0,68,-99.99,,,-99.99,,2013-10-23 21:54:00,
2013-10-23 17:02:00,39.0,29.0,-100.00,WNW,300,7.0,12.0,70,-99.99,,,-99.99,,2013-10-23 22:02:00,
2013-10-23 17:43:00,39.0,29.0,-100.00,WNW,300,7.0,12.0,70,-99.99,,,-99.99,,2013-10-23 22:43:00,
2013-10-23 17:54:00,39.0,29.0,-100.00,WNW,300,7.0,12.0,70,-99.99,,,-99.99,,2013-10-23 22:54:00,
2013-10-23 18:02:00,38.0,30.0,-100.00,NW,315,4.0,6.0,72,-99.99,,,-99.99,,2013-10-23 23:02:00,
2013-10-23 18:43:00,38.0,30.0,-100.00,NW,315,4.0,6.0,72,-99.99,,,-99.99,,2013-10-23 23:43:00,
2013-10-23 18:52:00,38.0,30.0,-100.00,NW,315,4.0,6.0,72,-99.99,,,-99.99,,2013-10-23 23:52:00,